EZY651 EGGD-LEMG
Flight info
| Callsign | EZY651 |
|---|---|
| Flight time | N/A |
| Altitude | 35000 |
| Route | EXMOR N40 SIDHO N862 TONQU DCT SALCO DCT DELOG DCT CRISA N864 VULPE |
| Aircraft | A320/M-SDE3FGHIRWY/LB1 |
Departure
| Time | 2026-05-04 10:39 |
|---|---|
| Airport | Bristol Airport (EGGD) |
Arrival
| Time | N/A |
|---|---|
| Airport | Málaga-Costa del Sol Airport (LEMG) |
| Time | Latitude | Longitude | Altitude | Speed | Heading |
|---|---|---|---|---|---|
| 2026-05-04 10:25 | 51.38523 | -2.71078 | 611 ft | 0 kts | 356° |
| 2026-05-04 10:26 | 51.38519 | -2.71078 | 611 ft | 3 kts | 356° |
| 2026-05-04 10:26 | 51.38492 | -2.71072 | 612 ft | 4 kts | 343° |
| 2026-05-04 10:27 | 51.38469 | -2.71055 | 629 ft | 4 kts | 309° |
| 2026-05-04 10:27 | 51.38462 | -2.71031 | 619 ft | 0 kts | 266° |
| 2026-05-04 10:29 | 51.38462 | -2.71032 | 619 ft | 1 kts | 266° |
| 2026-05-04 10:30 | 51.38462 | -2.71034 | 622 ft | 0 kts | 266° |
| 2026-05-04 10:34 | 51.38461 | -2.71046 | 622 ft | 2 kts | 266° |
| 2026-05-04 10:35 | 51.38460 | -2.71078 | 617 ft | 4 kts | 266° |
| 2026-05-04 10:35 | 51.38458 | -2.71135 | 618 ft | 6 kts | 266° |
| 2026-05-04 10:35 | 51.38455 | -2.71226 | 616 ft | 10 kts | 266° |
| 2026-05-04 10:35 | 51.38450 | -2.71352 | 613 ft | 15 kts | 266° |
| 2026-05-04 10:36 | 51.38442 | -2.71540 | 619 ft | 21 kts | 264° |
| 2026-05-04 10:36 | 51.38432 | -2.71797 | 606 ft | 25 kts | 265° |
| 2026-05-04 10:36 | 51.38432 | -2.72084 | 605 ft | 27 kts | 265° |
| 2026-05-04 10:36 | 51.38419 | -2.72371 | 611 ft | 25 kts | 265° |
| 2026-05-04 10:37 | 51.38409 | -2.72648 | 613 ft | 26 kts | 266° |
| 2026-05-04 10:37 | 51.38395 | -2.72949 | 612 ft | 28 kts | 266° |
| 2026-05-04 10:37 | 51.38382 | -2.73238 | 610 ft | 21 kts | 256° |
| 2026-05-04 10:37 | 51.38295 | -2.73342 | 618 ft | 12 kts | 181° |
| 2026-05-04 10:39 | 51.38658 | -2.66338 | 1824 ft | 216 kts | 91° |
| 2026-05-04 10:39 | 51.38505 | -2.63767 | 2318 ft | 248 kts | 99° |
| 2026-05-04 10:39 | 51.38099 | -2.61169 | 3667 ft | 231 kts | 107° |
| 2026-05-04 10:40 | 51.37499 | -2.58584 | 4422 ft | 259 kts | 113° |
| 2026-05-04 10:40 | 51.37071 | -2.55730 | 5394 ft | 270 kts | 91° |
| 2026-05-04 10:40 | 51.36942 | -2.52712 | 6538 ft | 276 kts | 105° |
| 2026-05-04 10:40 | 51.35976 | -2.50061 | 7654 ft | 281 kts | 139° |
| 2026-05-04 10:41 | 51.34245 | -2.48648 | 8760 ft | 285 kts | 171° |
| 2026-05-04 10:41 | 51.32240 | -2.48875 | 9569 ft | 302 kts | 200° |
| 2026-05-04 10:41 | 51.30418 | -2.50739 | 9866 ft | 334 kts | 228° |
| 2026-05-04 10:41 | 51.29213 | -2.54076 | 9985 ft | 365 kts | 254° |
| 2026-05-04 10:42 | 51.28967 | -2.58237 | 10014 ft | 391 kts | 273° |
| 2026-05-04 10:42 | 51.29098 | -2.62712 | 10100 ft | 411 kts | 272° |
| 2026-05-04 10:42 | 51.29181 | -2.67204 | 11357 ft | 398 kts | 272° |
| 2026-05-04 10:42 | 51.29264 | -2.71566 | 12553 ft | 393 kts | 271° |
| 2026-05-04 10:43 | 51.29265 | -2.76081 | 12637 ft | 417 kts | 269° |
| 2026-05-04 10:44 | 51.28202 | -3.05823 | 18667 ft | 399 kts | 247° |
| 2026-05-04 10:45 | 51.26979 | -3.09762 | 19273 ft | 403 kts | 240° |
| 2026-05-04 10:45 | 51.25514 | -3.13615 | 19852 ft | 406 kts | 238° |
| 2026-05-04 10:45 | 51.24000 | -3.17439 | 20385 ft | 409 kts | 238° |
| 2026-05-04 10:45 | 51.22495 | -3.21335 | 20895 ft | 412 kts | 236° |
| 2026-05-04 10:46 | 51.20610 | -3.24798 | 21356 ft | 416 kts | 221° |
| 2026-05-04 10:46 | 51.18253 | -3.27324 | 21784 ft | 419 kts | 205° |
| 2026-05-04 10:46 | 51.15431 | -3.28672 | 22194 ft | 422 kts | 187° |
| 2026-05-04 10:46 | 51.12487 | -3.28518 | 22580 ft | 426 kts | 168° |
| 2026-05-04 10:47 | 51.09692 | -3.26936 | 22951 ft | 429 kts | 155° |
| 2026-05-04 10:47 | 51.06916 | -3.25146 | 23308 ft | 431 kts | 164° |
| 2026-05-04 10:47 | 51.03964 | -3.24288 | 23656 ft | 433 kts | 176° |
| 2026-05-04 10:47 | 51.00942 | -3.24229 | 24005 ft | 435 kts | 181° |
| 2026-05-04 10:49 | 50.79400 | -3.23869 | 26166 ft | 450 kts | 179° |
| 2026-05-04 10:49 | 50.76272 | -3.23865 | 26448 ft | 451 kts | 183° |
| 2026-05-04 10:50 | 50.73138 | -3.24391 | 26706 ft | 453 kts | 187° |
| 2026-05-04 10:51 | 50.51004 | -3.28808 | 28347 ft | 463 kts | 187° |
| 2026-05-04 10:52 | 50.47799 | -3.29440 | 28572 ft | 464 kts | 187° |
| 2026-05-04 10:52 | 50.44592 | -3.30071 | 28851 ft | 463 kts | 187° |
| 2026-05-04 10:52 | 50.41397 | -3.30696 | 29127 ft | 462 kts | 187° |
| 2026-05-04 10:54 | 50.19453 | -3.37710 | 30973 ft | 458 kts | 192° |
| 2026-05-04 10:54 | 50.16320 | -3.38766 | 31230 ft | 458 kts | 192° |
| 2026-05-04 10:56 | 49.94590 | -3.46044 | 32961 ft | 454 kts | 192° |
| 2026-05-04 10:56 | 49.91528 | -3.47063 | 33196 ft | 454 kts | 192° |
| 2026-05-04 10:56 | 49.88441 | -3.48087 | 33427 ft | 453 kts | 192° |
| 2026-05-04 10:57 | 49.85353 | -3.49110 | 33659 ft | 453 kts | 192° |
| 2026-05-04 10:57 | 49.82261 | -3.50129 | 33892 ft | 453 kts | 192° |
| 2026-05-04 10:57 | 49.79182 | -3.51142 | 34116 ft | 452 kts | 192° |
| 2026-05-04 10:57 | 49.76093 | -3.52155 | 34343 ft | 452 kts | 192° |
| 2026-05-04 10:58 | 49.73033 | -3.52980 | 34563 ft | 451 kts | 186° |
| 2026-05-04 10:58 | 49.69899 | -3.53308 | 34773 ft | 451 kts | 184° |
| 2026-05-04 10:58 | 49.66635 | -3.53612 | 34986 ft | 451 kts | 184° |
| 2026-05-04 10:58 | 49.63622 | -3.53894 | 35177 ft | 450 kts | 184° |
| 2026-05-04 10:59 | 49.60487 | -3.54191 | 35368 ft | 450 kts | 184° |
| 2026-05-04 10:59 | 49.57358 | -3.54486 | 35550 ft | 450 kts | 184° |
| 2026-05-04 10:59 | 49.54236 | -3.54780 | 35728 ft | 449 kts | 184° |
| 2026-05-04 10:59 | 49.51118 | -3.55071 | 35898 ft | 449 kts | 184° |
| 2026-05-04 11:00 | 49.48004 | -3.55361 | 36070 ft | 448 kts | 184° |
| 2026-05-04 11:01 | 49.26226 | -3.57369 | 37006 ft | 449 kts | 184° |
| 2026-05-04 11:02 | 49.23096 | -3.57658 | 37010 ft | 451 kts | 184° |